Time;durP1;ratioP1;P1;durP2;ratioP2;P2;SDS_P1;SDS_P2;PMS_P1;PMS_P2;Temp;Humidity;BMP_temperature;BMP_pressure;BME280_temperature;BME280_humidity;BME280_pressure;Samples;Min_cycle;Max_cycle;Signal;HPM_P1;HPM_P2
2023/10/27 00:02:03;;;;;;;;;;;;;;;16.63;57.00;99749.03;5096239;28;1062;-54
2023/10/27 00:04:29;;;;;;;;;;;;;;;16.47;56.70;99751.22;5090059;28;1110;-52
2023/10/27 00:06:55;;;;;;;;;;;;;;;16.34;56.40;99752.78;5082849;28;1122;-52
2023/10/27 00:09:20;;;;;;;;;;;;;;;16.25;56.15;99754.56;5096435;28;1098;-54
2023/10/27 00:11:46;;;;;;;;;;;;;;;16.15;56.12;99749.22;5077743;28;1220;-54
2023/10/27 00:14:11;;;;;;;;;;;;;;;16.19;56.55;99755.75;5076496;28;1027;-54
2023/10/27 00:16:37;;;;;;;;;;;;;;;17.43;56.48;99760.88;5082041;28;1050;-54
2023/10/27 00:19:02;;;;;;;;;;;;;;;16.89;57.26;99754.97;5083729;28;1976;-53
2023/10/27 00:21:28;;;;;;;;;;;;;;;16.57;57.02;99761.22;5094899;28;1086;-54
2023/10/27 00:23:53;;;;;;;;;;;;;;;16.46;56.62;99759.75;5082735;28;886;-53
2023/10/27 00:26:19;;;;;;;;;;;;;;;16.30;56.10;99751.75;5094186;28;1129;-54
2023/10/27 00:28:50;;;;;;;;;;;;;;;16.24;56.04;99752.91;5087743;28;1126;-54
2023/10/27 00:31:15;;;;;;;;;;;;;;;16.13;56.09;99748.69;5081328;28;1074;-54
2023/10/27 00:33:41;;;;;;;;;;;;;;;17.27;56.94;99751.28;5077895;28;1217;-53
2023/10/27 00:36:06;;;;;;;;;;;;;;;17.13;56.88;99754.00;5089762;28;1194;-54
2023/10/27 00:38:32;;;;;;;;;;;;;;;16.72;56.93;99750.00;5075846;28;1983;-54
2023/10/27 00:40:57;;;;;;;;;;;;;;;16.54;56.66;99750.84;5073637;28;1102;-54
2023/10/27 00:43:23;;;;;;;;;;;;;;;16.39;56.43;99749.94;5083483;28;1117;-54
2023/10/27 00:45:49;;;;;;;;;;;;;;;16.30;56.13;99750.91;5075661;28;1167;-53
2023/10/27 00:48:15;;;;;;;;;;;;;;;16.20;56.04;99752.72;5090391;28;1167;-52
2023/10/27 00:50:40;;;;;;;;;;;;;;;16.37;56.43;99746.69;5085867;28;1050;-53
2023/10/27 00:53:06;;;;;;;;;;;;;;;17.51;56.61;99739.31;5069331;28;1118;-54
2023/10/27 00:55:31;;;;;;;;;;;;;;;16.85;57.13;99736.63;5083745;28;1027;-52
2023/10/27 00:57:57;;;;;;;;;;;;;;;16.56;57.11;99732.16;5080929;28;2086;-54
2023/10/27 01:00:22;;;;;;;;;;;;;;;16.41;56.76;99741.41;5067690;28;1114;-54
2023/10/27 01:02:48;;;;;;;;;;;;;;;16.31;56.36;99739.63;5099480;28;1058;-54
2023/10/27 01:05:15;;;;;;;;;;;;;;;16.23;55.94;99735.66;5067152;28;1259;-54
2023/10/27 01:07:40;;;;;;;;;;;;;;;16.15;56.20;99743.75;5087999;28;1110;-53
2023/10/27 01:10:06;;;;;;;;;;;;;;;16.85;57.50;99755.84;5097094;28;1162;-53
2023/10/27 01:12:33;;;;;;;;;;;;;;;17.19;56.85;99751.97;5087904;28;1135;-52
2023/10/27 01:14:58;;;;;;;;;;;;;;;16.69;57.13;99760.75;5092222;28;1082;-54
2023/10/27 01:17:24;;;;;;;;;;;;;;;16.46;56.82;99737.81;5088138;28;1058;-52
2023/10/27 01:19:49;;;;;;;;;;;;;;;16.31;56.39;99742.38;5067000;28;1905;-53
2023/10/27 01:22:15;;;;;;;;;;;;;;;16.23;56.04;99734.84;5099278;28;1120;-52
2023/10/27 01:24:41;;;;;;;;;;;;;;;16.60;57.29;99733.19;5067496;28;1280;-54
2023/10/27 01:27:06;;;;;;;;;;;;;;;17.43;56.59;99725.16;5087305;28;1062;-53
2023/10/27 01:29:32;;;;;;;;;;;;;;;16.76;57.24;99720.84;5091554;28;1007;-53
2023/10/27 01:31:57;;;;;;;;;;;;;;;16.55;56.93;99716.78;5099263;28;1085;-53
2023/10/27 01:34:23;;;;;;;;;;;;;;;16.38;56.60;99720.91;5080153;28;1034;-50
2023/10/27 01:36:48;;;;;;;;;;;;;;;16.32;56.16;99726.75;5080271;28;1121;-53
2023/10/27 01:39:14;;;;;;;;;;;;;;;16.22;55.82;99727.72;5084993;28;1906;-53
2023/10/27 01:41:39;;;;;;;;;;;;;;;17.16;57.23;99731.41;5098590;28;911;-53
2023/10/27 01:44:05;;;;;;;;;;;;;;;17.05;57.30;99733.53;5062772;28;1183;-54
2023/10/27 01:46:30;;;;;;;;;;;;;;;16.63;57.30;99735.31;5070981;28;1110;-55
2023/10/27 01:48:58;;;;;;;;;;;;;;;16.51;56.67;99738.53;5084970;28;1006;-53
2023/10/27 01:51:23;;;;;;;;;;;;;;;16.35;56.50;99729.72;5098604;28;1043;-54
2023/10/27 01:53:49;;;;;;;;;;;;;;;16.28;56.13;99726.53;5069859;28;1400;-53
2023/10/27 01:56:14;;;;;;;;;;;;;;;16.16;55.88;99723.41;5071209;28;1443;-54
2023/10/27 01:58:44;;;;;;;;;;;;;;;16.24;56.74;99730.97;5079479;28;1902;-54
2023/10/27 02:01:09;;;;;;;;;;;;;;;17.53;56.78;99723.31;5080061;28;1199;-53
2023/10/27 02:03:35;;;;;;;;;;;;;;;16.99;57.09;99731.19;5079781;28;1206;-53
2023/10/27 02:06:00;;;;;;;;;;;;;;;16.65;57.03;99724.03;5087019;28;843;-55
2023/10/27 02:08:26;;;;;;;;;;;;;;;16.49;56.38;99734.47;5072994;28;1212;-54
2023/10/27 02:10:52;;;;;;;;;;;;;;;16.38;56.32;99737.38;5070889;28;1231;-54
2023/10/27 02:13:17;;;;;;;;;;;;;;;16.26;56.08;99726.03;5066512;28;1147;-52
2023/10/27 02:15:43;;;;;;;;;;;;;;;16.17;55.71;99728.63;5080083;28;1521;-53
2023/10/27 02:18:08;;;;;;;;;;;;;;;16.12;55.81;99738.81;5065805;28;1909;-55
2023/10/27 02:20:35;;;;;;;;;;;;;;;17.28;57.17;99742.75;5098440;28;1058;-53
2023/10/27 02:23:01;;;;;;;;;;;;;;;17.01;57.28;99738.03;5084366;28;1156;-54
2023/10/27 02:25:26;;;;;;;;;;;;;;;16.64;57.43;99738.91;5086149;28;1146;-54
2023/10/27 02:27:52;;;;;;;;;;;;;;;16.48;56.94;99741.03;5077487;28;1070;-56
2023/10/27 02:30:17;;;;;;;;;;;;;;;16.38;56.48;99745.59;5059877;28;853;-54
2023/10/27 02:32:43;;;;;;;;;;;;;;;16.23;56.38;99745.81;5090871;28;1018;-55
2023/10/27 02:35:08;;;;;;;;;;;;;;;16.20;55.87;99744.47;5070633;28;1541;-54
2023/10/27 02:37:34;;;;;;;;;;;;;;;16.23;56.82;99756.78;5065733;28;1650;-54
2023/10/27 02:40:00;;;;;;;;;;;;;;;17.46;57.02;99764.97;5068064;28;2487;-54
2023/10/27 02:42:25;;;;;;;;;;;;;;;16.95;57.46;99768.63;5085593;28;1201;-54
2023/10/27 02:44:51;;;;;;;;;;;;;;;16.57;57.32;99766.72;5088206;28;1074;-54
2023/10/27 02:47:17;;;;;;;;;;;;;;;16.45;56.96;99769.09;5080051;28;1118;-55
2023/10/27 02:49:42;;;;;;;;;;;;;;;16.31;56.50;99769.81;5069199;28;1019;-54
2023/10/27 02:52:08;;;;;;;;;;;;;;;16.24;56.35;99777.59;5093478;28;1136;-54
2023/10/27 02:54:34;;;;;;;;;;;;;;;16.38;57.00;99770.28;5077003;28;1240;-54
2023/10/27 02:56:59;;;;;;;;;;;;;;;17.58;56.79;99767.19;5075880;28;1553;-55
2023/10/27 02:59:25;;;;;;;;;;;;;;;16.95;57.36;99766.69;5086778;28;1905;-54
2023/10/27 03:01:52;;;;;;;;;;;;;;;16.67;56.73;99766.53;5090354;28;1130;-52
2023/10/27 03:04:19;;;;;;;;;;;;;;;16.45;56.84;99764.41;5087604;28;1046;-53
2023/10/27 03:06:44;;;;;;;;;;;;;;;16.35;56.33;99768.13;5092711;28;1026;-53
2023/10/27 03:09:10;;;;;;;;;;;;;;;16.24;56.38;99769.38;5086346;28;1058;-54
2023/10/27 03:11:35;;;;;;;;;;;;;;;16.20;55.82;99774.66;5093384;28;1418;-54
2023/10/27 03:14:01;;;;;;;;;;;;;;;16.32;56.86;99770.66;5088059;28;1216;-53
2023/10/27 03:16:27;;;;;;;;;;;;;;;17.52;56.84;99779.41;5092101;28;1225;-53
2023/10/27 03:18:53;;;;;;;;;;;;;;;16.86;57.35;99783.00;5096880;28;1905;-52
2023/10/27 03:21:19;;;;;;;;;;;;;;;16.56;57.25;99767.81;5080351;28;1045;-54
2023/10/27 03:23:46;;;;;;;;;;;;;;;16.38;56.66;99763.97;5058569;28;1086;-55
2023/10/27 03:26:12;;;;;;;;;;;;;;;16.27;56.31;99762.50;5058649;28;1303;-53
2023/10/27 03:28:38;;;;;;;;;;;;;;;16.21;55.89;99759.81;5085834;28;1043;-55
2023/10/27 03:31:03;;;;;;;;;;;;;;;16.38;56.75;99759.31;5091550;28;1217;-53
2023/10/27 03:33:29;;;;;;;;;;;;;;;17.55;56.57;99757.63;5096393;28;1074;-53
2023/10/27 03:35:54;;;;;;;;;;;;;;;16.84;57.23;99760.50;5079185;28;2245;-53
2023/10/27 03:38:20;;;;;;;;;;;;;;;16.56;57.20;99768.66;5090483;28;2791;-49
2023/10/27 03:40:47;;;;;;;;;;;;;;;16.44;56.73;99765.53;5088617;28;1987;-53
2023/10/27 03:43:14;;;;;;;;;;;;;;;16.31;56.25;99758.03;5086504;28;1912;-54
2023/10/27 03:45:39;;;;;;;;;;;;;;;16.22;56.38;99763.38;5077112;28;1952;-53
2023/10/27 03:48:05;;;;;;;;;;;;;;;16.14;55.96;99764.03;5069978;28;2266;-55
2023/10/27 03:50:30;;;;;;;;;;;;;;;16.48;57.09;99763.84;5089817;28;2307;-54
2023/10/27 03:52:56;;;;;;;;;;;;;;;17.62;56.76;99768.22;5082153;28;2133;-52
2023/10/27 03:55:22;;;;;;;;;;;;;;;16.90;57.72;99762.09;5080158;28;1178;-46
2023/10/27 03:57:47;;;;;;;;;;;;;;;16.62;57.22;99768.56;5082259;28;1901;-48
2023/10/27 04:00:16;;;;;;;;;;;;;;;16.42;57.10;99765.84;5083993;28;1069;-52
2023/10/27 04:02:43;;;;;;;;;;;;;;;16.35;56.81;99770.84;5079113;28;1181;-54
2023/10/27 04:05:09;;;;;;;;;;;;;;;16.24;56.61;99758.41;5095982;28;1110;-50
2023/10/27 04:07:34;;;;;;;;;;;;;;;16.16;56.34;99750.84;5078663;28;1050;-52
2023/10/27 04:10:01;;;;;;;;;;;;;;;16.08;55.98;99757.81;5074043;28;1001;-57
2023/10/27 04:12:26;;;;;;;;;;;;;;;16.12;56.91;99755.28;5087999;28;1146;-46
2023/10/27 04:14:52;;;;;;;;;;;;;;;17.37;57.28;99762.06;5074731;28;1008;-47
2023/10/27 04:17:17;;;;;;;;;;;;;;;16.89;57.50;99748.66;5088415;28;1182;-51
2023/10/27 04:19:43;;;;;;;;;;;;;;;16.52;57.71;99759.38;5087287;28;1972;-50
2023/10/27 04:22:09;;;;;;;;;;;;;;;16.40;57.16;99768.06;5097478;28;1868;-48
2023/10/27 04:24:34;;;;;;;;;;;;;;;16.32;56.54;99759.69;5087750;28;1031;-52
2023/10/27 04:27:00;;;;;;;;;;;;;;;16.15;56.77;99749.22;5092671;28;1118;-47
2023/10/27 04:29:25;;;;;;;;;;;;;;;16.13;56.32;99763.25;5092000;28;1062;-48
2023/10/27 04:31:51;;;;;;;;;;;;;;;16.07;56.12;99747.94;5080329;28;1003;-48
2023/10/27 04:34:16;;;;;;;;;;;;;;;17.11;57.08;99756.25;5079502;28;1146;-49
2023/10/27 04:36:43;;;;;;;;;;;;;;;16.22;56.67;99752.41;5085035;28;1068;-47
2023/10/27 04:39:09;;;;;;;;;;;;;;;15.89;55.15;99752.28;5099271;28;1906;-51
2023/10/27 04:41:34;;;;;;;;;;;;;;;15.69;53.82;99754.16;5099871;28;1153;-52
2023/10/27 04:44:00;;;;;;;;;;;;;;;15.74;52.30;99756.84;5098565;28;1030;-51
2023/10/27 04:46:26;;;;;;;;;;;;;;;15.55;51.74;99758.69;5080332;28;1180;-51
2023/10/27 04:48:52;;;;;;;;;;;;;;;15.54;51.14;99757.06;5092908;28;1046;-53
2023/10/27 04:51:17;;;;;;;;;;;;;;;15.48;50.89;99760.97;5085732;28;1847;-51
2023/10/27 04:53:43;;;;;;;;;;;;;;;15.46;50.20;99765.91;5081839;28;1331;-52
2023/10/27 04:56:08;;;;;;;;;;;;;;;15.42;49.81;99764.88;5098966;28;1136;-54
2023/10/27 04:58:34;;;;;;;;;;;;;;;16.10;52.19;99755.56;5097229;28;1979;-51
2023/10/27 05:00:59;;;;;;;;;;;;;;;15.76;51.62;99758.47;5099578;28;1442;-52
2023/10/27 05:03:25;;;;;;;;;;;;;;;15.60;51.16;99766.88;5085772;28;1161;-51
2023/10/27 05:05:51;;;;;;;;;;;;;;;15.56;50.09;99760.34;5091083;28;1014;-48
2023/10/27 05:08:16;;;;;;;;;;;;;;;15.52;49.86;99760.09;5095974;28;939;-50
2023/10/27 05:10:42;;;;;;;;;;;;;;;15.42;49.39;99759.38;5078950;28;1051;-47
2023/10/27 05:13:07;;;;;;;;;;;;;;;16.08;50.30;99761.34;5079288;28;1114;-51
2023/10/27 05:15:33;;;;;;;;;;;;;;;15.89;51.31;99774.22;5099274;28;1074;-49
2023/10/27 05:18:04;;;;;;;;;;;;;;;15.69;50.54;99776.06;5084967;28;1901;-49
2023/10/27 05:20:30;;;;;;;;;;;;;;;15.69;49.43;99772.53;5079188;28;911;-50
2023/10/27 05:22:56;;;;;;;;;;;;;;;15.55;49.30;99781.44;5078792;28;1166;-54
2023/10/27 05:25:22;;;;;;;;;;;;;;;15.53;48.64;99780.13;5078605;28;1197;-52
2023/10/27 05:27:48;;;;;;;;;;;;;;;15.54;48.53;99778.97;5093512;28;1125;-54
2023/10/27 05:30:13;;;;;;;;;;;;;;;15.48;48.18;99791.13;5090735;28;1113;-52
2023/10/27 05:32:39;;;;;;;;;;;;;;;15.53;47.80;99796.56;5077806;28;1001;-53
2023/10/27 05:35:04;;;;;;;;;;;;;;;15.53;47.54;99799.28;5086289;28;1074;-54
2023/10/27 05:37:30;;;;;;;;;;;;;;;15.49;47.53;99793.56;5098662;28;1201;-55
2023/10/27 05:39:55;;;;;;;;;;;;;;;15.39;47.83;99790.94;5090143;28;1913;-52
2023/10/27 05:42:21;;;;;;;;;;;;;;;15.46;48.76;99787.84;5092918;28;1056;-51
2023/10/27 05:44:46;;;;;;;;;;;;;;;15.40;48.25;99785.16;5090506;28;1124;-51
2023/10/27 05:47:12;;;;;;;;;;;;;;;15.43;48.04;99792.00;5073414;28;1098;-53
2023/10/27 05:49:37;;;;;;;;;;;;;;;15.39;47.68;99796.41;5085842;28;1157;-53
2023/10/27 05:52:03;;;;;;;;;;;;;;;15.39;47.53;99805.44;5097520;28;1169;-53
2023/10/27 05:54:29;;;;;;;;;;;;;;;15.37;47.49;99804.09;5077630;28;1166;-54
2023/10/27 05:56:55;;;;;;;;;;;;;;;15.33;47.39;99787.44;5081337;28;1130;-54
2023/10/27 05:59:20;;;;;;;;;;;;;;;16.22;48.43;99793.56;5088756;28;1968;-54
2023/10/27 06:01:48;;;;;;;;;;;;;;;15.73;49.16;99798.25;5093942;28;1082;-54
2023/10/27 06:04:17;;;;;;;;;;;;;;;15.57;48.83;99794.84;5098430;28;1093;-54
2023/10/27 06:06:42;;;;;;;;;;;;;;;15.54;47.98;99785.31;5081112;28;1038;-54
2023/10/27 06:09:08;;;;;;;;;;;;;;;15.54;47.80;99784.47;5087645;28;1114;-54
2023/10/27 06:11:34;;;;;;;;;;;;;;;15.53;47.53;99791.06;5080982;28;1038;-52
2023/10/27 06:14:00;;;;;;;;;;;;;;;15.47;47.13;99789.47;5091582;28;1339;-54
2023/10/27 06:16:25;;;;;;;;;;;;;;;15.39;47.13;99791.75;5090748;28;1116;-57
2023/10/27 06:18:54;;;;;;;;;;;;;;;15.46;47.15;99791.41;5077582;28;1894;-55
2023/10/27 06:21:19;;;;;;;;;;;;;;;15.48;46.64;99791.13;5077376;28;1097;-55
2023/10/27 06:23:45;;;;;;;;;;;;;;;15.31;46.97;99781.41;5084486;28;1130;-54
2023/10/27 06:26:10;;;;;;;;;;;;;;;15.40;46.66;99784.34;5097809;28;1035;-55
2023/10/27 06:28:36;;;;;;;;;;;;;;;15.30;47.17;99781.72;5097353;28;1145;-54
2023/10/27 06:31:04;;;;;;;;;;;;;;;15.35;46.80;99787.94;5084558;28;1110;-55
2023/10/27 06:33:32;;;;;;;;;;;;;;;15.32;46.89;99774.00;5077386;28;1035;-55
2023/10/27 06:35:59;;;;;;;;;;;;;;;15.35;46.73;99781.66;5090342;28;1073;-56
2023/10/27 06:38:25;;;;;;;;;;;;;;;16.11;47.79;99781.09;5084680;28;1905;-56
2023/10/27 06:40:50;;;;;;;;;;;;;;;15.60;48.69;99777.00;5083566;28;1050;-56
2023/10/27 06:43:16;;;;;;;;;;;;;;;15.53;48.16;99775.44;5076954;28;1047;-54
2023/10/27 06:45:41;;;;;;;;;;;;;;;15.44;47.71;99776.38;5076231;28;1117;-56
2023/10/27 06:48:07;;;;;;;;;;;;;;;15.40;47.67;99774.22;5084587;28;1099;-54
2023/10/27 06:50:33;;;;;;;;;;;;;;;15.38;47.34;99781.88;5097048;28;1047;-55
2023/10/27 06:52:58;;;;;;;;;;;;;;;15.34;46.91;99780.84;5089259;28;1117;-56
2023/10/27 06:55:24;;;;;;;;;;;;;;;15.34;46.93;99769.88;5093493;28;1229;-56
2023/10/27 06:57:49;;;;;;;;;;;;;;;15.37;47.25;99769.28;5097152;28;1963;-56
2023/10/27 07:00:15;;;;;;;;;;;;;;;15.98;48.49;99766.19;5097195;28;1078;-56
2023/10/27 07:02:41;;;;;;;;;;;;;;;15.63;48.51;99765.47;5086747;28;1002;-62
2023/10/27 07:05:08;;;;;;;;;;;;;;;15.51;48.16;99772.16;5093111;28;1055;-55
2023/10/27 07:07:34;;;;;;;;;;;;;;;15.51;47.87;99774.09;5096215;28;1113;-50
2023/10/27 07:09:59;;;;;;;;;;;;;;;15.44;47.31;99773.63;5096666;28;1217;-51
2023/10/27 07:12:25;;;;;;;;;;;;;;;15.46;47.17;99771.41;5087464;28;1022;-50
2023/10/27 07:14:50;;;;;;;;;;;;;;;15.44;47.14;99762.66;5089825;28;1074;-49
2023/10/27 07:17:16;;;;;;;;;;;;;;;15.52;46.60;99759.28;5076464;28;1091;-49
2023/10/27 07:19:41;;;;;;;;;;;;;;;15.46;46.67;99757.69;5089804;28;1906;-53
2023/10/27 07:22:07;;;;;;;;;;;;;;;15.35;46.65;99757.81;5076476;28;1111;-49
2023/10/27 07:24:32;;;;;;;;;;;;;;;15.47;46.69;99751.13;5090967;28;1039;-51
2023/10/27 07:26:58;;;;;;;;;;;;;;;15.37;46.76;99749.31;5096688;28;1122;-51
2023/10/27 07:29:23;;;;;;;;;;;;;;;15.30;46.98;99752.38;5081785;28;1174;-52
2023/10/27 07:31:49;;;;;;;;;;;;;;;15.35;46.54;99752.34;5084251;28;1054;-50
2023/10/27 07:34:14;;;;;;;;;;;;;;;15.45;46.13;99754.16;5081879;28;1078;-55
2023/10/27 07:36:40;;;;;;;;;;;;;;;15.39;46.50;99755.31;5084046;28;1121;-50
2023/10/27 07:39:06;;;;;;;;;;;;;;;15.39;46.46;99756.13;5082345;28;1917;-54
2023/10/27 07:41:32;;;;;;;;;;;;;;;15.48;46.96;99748.09;5096172;28;1089;-54
2023/10/27 07:43:58;;;;;;;;;;;;;;;16.11;48.39;99737.22;5081757;28;1023;-53
2023/10/27 07:46:23;;;;;;;;;;;;;;;15.67;48.61;99737.19;5076336;28;1122;-54
2023/10/27 07:48:49;;;;;;;;;;;;;;;15.56;48.28;99736.50;5090165;28;1221;-54
2023/10/27 07:51:15;;;;;;;;;;;;;;;15.55;47.79;99739.53;5095289;28;1153;-51
2023/10/27 07:53:41;;;;;;;;;;;;;;;15.59;47.58;99743.31;5093662;28;1241;-55
2023/10/27 07:56:07;;;;;;;;;;;;;;;16.15;48.51;99746.47;5075863;28;1035;-48
2023/10/27 07:58:33;;;;;;;;;;;;;;;15.81;48.70;99750.19;5078031;28;1914;-54
2023/10/27 08:00:58;;;;;;;;;;;;;;;15.67;48.16;99753.63;5086459;28;1023;-53
2023/10/27 08:03:24;;;;;;;;;;;;;;;15.63;48.04;99744.38;5089752;28;1173;-55
2023/10/27 08:05:50;;;;;;;;;;;;;;;15.67;47.52;99748.16;5085202;28;1051;-48
2023/10/27 08:08:15;;;;;;;;;;;;;;;15.57;47.56;99745.50;5091582;28;1062;-52
2023/10/27 08:10:44;;;;;;;;;;;;;;;15.49;47.20;99741.50;5086779;28;1077;-54
2023/10/27 08:13:09;;;;;;;;;;;;;;;16.29;48.16;99724.63;5092148;28;1121;-53
2023/10/27 08:15:35;;;;;;;;;;;;;;;15.89;48.42;99733.94;5086491;28;1217;-50
2023/10/27 08:18:01;;;;;;;;;;;;;;;15.71;48.29;99735.50;5084176;28;1987;-52
2023/10/27 08:20:26;;;;;;;;;;;;;;;15.70;48.03;99731.13;5093171;28;1011;-52
2023/10/27 08:22:52;;;;;;;;;;;;;;;15.72;47.56;99720.69;5084052;28;1101;-52
2023/10/27 08:25:22;;;;;;;;;;;;;;;15.63;47.44;99725.19;5096210;28;1209;-52
2023/10/27 08:27:48;;;;;;;;;;;;;;;15.66;47.02;99715.56;5096047;28;1098;-53
2023/10/27 08:30:14;;;;;;;;;;;;;;;16.60;48.46;99705.72;5092593;28;1283;-49
2023/10/27 08:32:40;;;;;;;;;;;;;;;16.01;49.10;99711.56;5075762;28;1109;-51
2023/10/27 08:35:06;;;;;;;;;;;;;;;16.00;48.68;99700.88;5078357;28;1170;-52
2023/10/27 08:37:31;;;;;;;;;;;;;;;15.84;48.32;99701.09;5086123;28;1038;-49
2023/10/27 08:39:57;;;;;;;;;;;;;;;15.77;48.09;99703.34;5075432;28;1909;-53
2023/10/27 08:42:22;;;;;;;;;;;;;;;15.77;47.50;99705.25;5084634;28;1117;-51
2023/10/27 08:44:48;;;;;;;;;;;;;;;15.72;47.51;99687.81;5092818;28;1054;-51
2023/10/27 08:47:13;;;;;;;;;;;;;;;15.60;47.39;99692.88;5066655;28;1063;-51
2023/10/27 08:49:39;;;;;;;;;;;;;;;15.73;47.12;99683.94;5082400;28;1010;-53
2023/10/27 08:52:05;;;;;;;;;;;;;;;15.71;46.94;99680.69;5095146;28;1041;-51
2023/10/27 08:54:31;;;;;;;;;;;;;;;15.69;47.00;99680.16;5071413;28;1185;-49
2023/10/27 08:56:56;;;;;;;;;;;;;;;15.71;46.88;99679.84;5081997;28;1134;-48
2023/10/27 08:59:23;;;;;;;;;;;;;;;15.59;47.06;99674.81;5088386;28;1913;-48
2023/10/27 09:01:48;;;;;;;;;;;;;;;16.35;48.38;99666.59;5092144;28;1094;-49
2023/10/27 09:04:15;;;;;;;;;;;;;;;15.92;48.54;99669.44;5095678;28;1486;-53
2023/10/27 09:06:41;;;;;;;;;;;;;;;15.83;48.20;99668.50;5095815;28;1209;-52
2023/10/27 09:09:07;;;;;;;;;;;;;;;15.81;48.06;99657.00;5084243;28;1062;-50
2023/10/27 09:11:45;;;;;;;;;;;;;;;15.76;47.84;99659.81;5091476;28;1211;-52
2023/10/27 09:14:28;;;;;;;;;;;;;;;15.80;47.22;99658.13;5081357;28;1066;-47
2023/10/27 09:17:06;;;;;;;;;;;;;;;15.74;47.45;99655.41;5099070;28;1105;-49
2023/10/27 09:19:32;;;;;;;;;;;;;;;15.72;47.46;99649.44;5091202;28;1981;-51
2023/10/27 09:21:57;;;;;;;;;;;;;;;15.77;47.12;99639.47;5089573;28;1732;-48
2023/10/27 09:24:23;;;;;;;;;;;;;;;15.80;46.86;99638.94;5088717;28;2022;-50
2023/10/27 09:26:48;;;;;;;;;;;;;;;15.72;47.24;99618.44;5087044;28;2159;-51
2023/10/27 09:29:14;;;;;;;;;;;;;;;15.68;47.36;99631.13;5089155;28;1799;-52
2023/10/27 09:31:39;;;;;;;;;;;;;;;15.67;47.16;99619.34;5083901;28;1797;-52
2023/10/27 09:34:24;;;;;;;;;;;;;;;15.71;47.13;99625.88;5082290;28;2094;-47
2023/10/27 09:36:58;;;;;;;;;;;;;;;15.65;47.28;99634.44;5093593;28;1026;-51
2023/10/27 09:39:24;;;;;;;;;;;;;;;15.57;47.29;99628.53;5077732;28;1979;-50
2023/10/27 09:41:53;;;;;;;;;;;;;;;15.53;47.46;99632.16;5093835;28;1326;-51
2023/10/27 09:44:18;;;;;;;;;;;;;;;15.61;47.41;99630.66;5097769;28;1058;-48
2023/10/27 09:46:48;;;;;;;;;;;;;;;15.68;46.98;99631.94;5079758;28;1054;-47
2023/10/27 09:49:13;;;;;;;;;;;;;;;15.63;47.16;99621.06;5080129;28;1150;-50
2023/10/27 09:51:40;;;;;;;;;;;;;;;15.56;47.08;99617.88;5062360;28;1035;-51
2023/10/27 09:54:05;;;;;;;;;;;;;;;15.61;47.17;99597.78;5069480;28;1230;-53
2023/10/27 09:56:31;;;;;;;;;;;;;;;15.57;47.20;99595.66;5087476;28;1049;-51
2023/10/27 09:58:56;;;;;;;;;;;;;;;15.54;47.15;99582.53;5078292;28;1913;-50
2023/10/27 10:01:22;;;;;;;;;;;;;;;15.54;47.11;99592.66;5096933;28;1002;-49
2023/10/27 10:03:47;;;;;;;;;;;;;;;15.53;47.22;99586.38;5062849;28;1800;-52
2023/10/27 10:06:15;;;;;;;;;;;;;;;15.51;47.20;99591.31;5087167;28;991;-53
2023/10/27 10:08:41;;;;;;;;;;;;;;;15.58;47.08;99590.97;5079670;28;1002;-54
2023/10/27 10:11:13;;;;;;;;;;;;;;;15.51;47.58;99576.81;5087137;28;1107;-57
2023/10/27 10:13:38;;;;;;;;;;;;;;;15.49;47.40;99573.59;5082976;28;1022;-55
2023/10/27 10:16:04;;;;;;;;;;;;;;;15.60;46.97;99572.31;5097025;28;1050;-54
2023/10/27 10:18:35;;;;;;;;;;;;;;;15.62;46.96;99572.81;5065615;28;1910;-54
2023/10/27 10:21:01;;;;;;;;;;;;;;;15.51;47.45;99583.13;5096294;28;1035;-55
2023/10/27 10:23:50;;;;;;;;;;;;;;;15.54;47.10;99566.09;5077043;28;998;-54
2023/10/27 10:26:15;;;;;;;;;;;;;;;15.60;46.96;99582.44;5085088;28;1118;-54
2023/10/27 10:28:41;;;;;;;;;;;;;;;15.44;47.39;99574.44;5078089;28;1067;-55
2023/10/27 10:31:06;;;;;;;;;;;;;;;15.55;47.01;99581.41;5085012;28;1010;-55
2023/10/27 10:33:32;;;;;;;;;;;;;;;15.55;47.29;99572.38;5082856;28;1914;-56
2023/10/27 10:36:22;;;;;;;;;;;;;;;15.57;47.46;99575.63;5095771;28;1205;-54
2023/10/27 10:38:52;;;;;;;;;;;;;;;16.05;49.02;99572.75;5078441;28;1922;-54
2023/10/27 10:41:18;;;;;;;;;;;;;;;15.86;48.70;99572.75;5088763;28;994;-53
2023/10/27 10:43:44;;;;;;;;;;;;;;;15.76;48.67;99572.91;5076690;28;1015;-53
2023/10/27 10:46:13;;;;;;;;;;;;;;;15.71;48.32;99571.06;5080728;28;875;-51
2023/10/27 10:48:42;;;;;;;;;;;;;;;15.65;48.15;99561.28;5091302;28;992;-54
2023/10/27 10:51:30;;;;;;;;;;;;;;;15.62;47.84;99550.09;5096374;28;1207;-54
2023/10/27 10:53:56;;;;;;;;;;;;;;;15.62;47.69;99553.66;5090729;28;1168;-54
2023/10/27 10:56:22;;;;;;;;;;;;;;;15.67;47.59;99550.84;5076879;28;1019;-54
2023/10/27 10:58:47;;;;;;;;;;;;;;;15.66;47.45;99548.41;5093646;28;1898;-52
2023/10/27 11:01:16;;;;;;;;;;;;;;;15.62;47.51;99545.44;5084007;28;1084;-54
2023/10/27 11:03:45;;;;;;;;;;;;;;;15.67;47.27;99530.81;5091343;28;1787;-56
2023/10/27 11:06:10;;;;;;;;;;;;;;;15.56;47.54;99519.22;5096185;28;986;-54
2023/10/27 11:08:37;;;;;;;;;;;;;;;15.59;47.43;99513.16;5082333;28;1130;-55
2023/10/27 11:11:05;;;;;;;;;;;;;;;15.61;47.41;99508.16;5077613;28;925;-53
2023/10/27 11:13:31;;;;;;;;;;;;;;;15.67;47.12;99497.94;5089006;28;1406;-53
2023/10/27 11:15:57;;;;;;;;;;;;;;;15.60;47.37;99487.38;5075220;28;1070;-51
2023/10/27 11:18:25;;;;;;;;;;;;;;;15.63;47.17;99508.69;5091571;28;1977;-53
2023/10/27 11:20:51;;;;;;;;;;;;;;;15.63;47.42;99495.00;5090596;28;1330;-54
2023/10/27 11:23:17;;;;;;;;;;;;;;;15.58;47.27;99495.06;5082142;28;864;-53
2023/10/27 11:25:42;;;;;;;;;;;;;;;15.62;47.09;99501.59;5095784;28;1014;-53
2023/10/27 11:28:17;;;;;;;;;;;;;;;15.61;47.38;99493.66;5092434;28;1165;-53
2023/10/27 11:30:43;;;;;;;;;;;;;;;15.54;47.57;99488.56;5085519;28;1149;-53
2023/10/27 11:33:08;;;;;;;;;;;;;;;15.48;47.39;99489.75;5092460;28;1002;-54
2023/10/27 11:35:44;;;;;;;;;;;;;;;15.52;47.54;99485.31;5085351;28;1776;-54
2023/10/27 11:38:09;;;;;;;;;;;;;;;15.54;47.30;99485.81;5074927;28;1905;-56
2023/10/27 11:40:35;;;;;;;;;;;;;;;15.60;47.26;99479.16;5075395;28;1007;-54
2023/10/27 11:43:00;;;;;;;;;;;;;;;15.66;47.00;99486.19;5088439;28;1015;-55
2023/10/27 11:45:26;;;;;;;;;;;;;;;15.59;47.20;99484.94;5079310;28;1062;-56
2023/10/27 11:47:52;;;;;;;;;;;;;;;15.63;47.30;99497.75;5087664;28;987;-53
2023/10/27 11:50:17;;;;;;;;;;;;;;;15.57;47.27;99490.69;5081758;28;983;-55
2023/10/27 11:52:43;;;;;;;;;;;;;;;15.64;47.04;99491.16;5082442;28;1096;-52
2023/10/27 11:55:08;;;;;;;;;;;;;;;15.54;47.14;99488.56;5094016;28;1117;-55
2023/10/27 11:57:34;;;;;;;;;;;;;;;15.55;47.15;99482.78;5082965;28;1015;-53
2023/10/27 11:59:59;;;;;;;;;;;;;;;15.54;47.43;99474.84;5075115;28;1976;-51
2023/10/27 12:02:25;;;;;;;;;;;;;;;15.57;47.14;99469.59;5075301;28;1093;-52
2023/10/27 12:04:51;;;;;;;;;;;;;;;15.57;47.30;99471.50;5074758;28;1891;-52
2023/10/27 12:07:17;;;;;;;;;;;;;;;15.46;47.44;99467.31;5087815;28;1058;-51
2023/10/27 12:09:43;;;;;;;;;;;;;;;15.56;47.21;99480.88;5094772;28;1090;-52
2023/10/27 12:12:09;;;;;;;;;;;;;;;15.55;47.01;99474.56;5082604;28;1067;-54
2023/10/27 12:14:35;;;;;;;;;;;;;;;15.54;47.20;99470.22;5088653;28;1012;-53
2023/10/27 12:17:00;;;;;;;;;;;;;;;15.60;46.84;99467.38;5087651;28;1086;-56
2023/10/27 12:19:27;;;;;;;;;;;;;;;15.48;47.25;99474.13;5081593;28;1964;-55
2023/10/27 12:21:52;;;;;;;;;;;;;;;15.56;47.23;99480.88;5090722;28;1062;-54
2023/10/27 12:24:18;;;;;;;;;;;;;;;16.31;48.47;99468.06;5081067;28;1105;-53
2023/10/27 12:26:46;;;;;;;;;;;;;;;15.87;48.93;99469.44;5082170;28;1107;-53
2023/10/27 12:29:12;;;;;;;;;;;;;;;15.68;49.00;99461.22;5075015;28;1105;-53
2023/10/27 12:31:37;;;;;;;;;;;;;;;15.80;48.27;99463.53;5092806;28;1439;-54
2023/10/27 12:34:03;;;;;;;;;;;;;;;15.80;47.82;99469.81;5090118;28;1973;-53
2023/10/27 12:36:29;;;;;;;;;;;;;;;15.66;48.15;99464.25;5092790;28;1019;-52
2023/10/27 12:38:54;;;;;;;;;;;;;;;15.63;47.93;99464.06;5094886;28;1984;-54
2023/10/27 12:41:20;;;;;;;;;;;;;;;15.61;47.67;99456.09;5081425;28;998;-55
2023/10/27 12:43:45;;;;;;;;;;;;;;;15.61;47.65;99447.88;5096657;28;1043;-53
2023/10/27 12:46:12;;;;;;;;;;;;;;;15.59;47.46;99452.88;5098719;28;1091;-54
2023/10/27 12:48:38;;;;;;;;;;;;;;;15.67;47.38;99452.19;5087445;28;1011;-53
2023/10/27 12:51:04;;;;;;;;;;;;;;;15.66;47.28;99447.81;5096120;28;1051;-53
2023/10/27 12:53:29;;;;;;;;;;;;;;;15.63;47.27;99453.09;5098736;28;1026;-51